F/V Attalaya Berria — FHCB — position and weather

sailwx.info

Track history (hours):
 
Tides and Currents Weather Stations Pressure Air Temp Water Temp Dewpoint Dewpoint Depression Visibility Wind Speed Wind Dir Waves Ship Positions

F/V Attalaya Berria

Last reported at 2017-Mar-30 05:33 UTC. Time now 2017-Mar-30 16:45 UTC.
Position N 43°24' W 001°49'.

Length 26 m.

Type: Fishing. MMSI: 228315000.

Date/timePositionNaut miles runAvg speedWind from/ knotsBaromVisibWave heightAir tempDewpointWater temp
2017-Mar-30 05:33N 43°24' W 001°49'2 0.5
2017-Mar-30 01:24N 43°23' W 001°51'7 8.3
2017-Mar-30 00:33N 43°27' W 001°43'0 0.1
2017-Mar-29 23:33N 43°27' W 001°43'0 0.2
2017-Mar-29 22:33N 43°27' W 001°42'2 2.2
2017-Mar-29 21:28N 43°27' W 001°46'4 3.7
2017-Mar-29 20:29N 43°30' W 001°43'3 3.1
2017-Mar-29 19:34N 43°27' W 001°42'5 0.3
2017-Mar-29 05:33N 43°24' W 001°47'3 0.5
2017-Mar-29 00:33N 43°23' W 001°51'7 6.9
2017-Mar-28 23:33N 43°27' W 001°42'2 1.9
2017-Mar-28 22:33N 43°29' W 001°43'1 0.9
2017-Mar-28 21:26N 43°28' W 001°44'0 0.3
2017-Mar-28 20:33N 43°27' W 001°43'1 1.0
2017-Mar-28 19:33N 43°27' W 001°42'5 0.4
2017-Mar-28 06:34N 43°24' W 001°49'3 0.4
2017-Mar-27 23:09N 43°23' W 001°52'6 9.9
2017-Mar-27 22:33N 43°25' W 001°45'3 2.8
2017-Mar-27 21:34N 43°27' W 001°42'3 3.4
2017-Mar-27 20:34N 43°29' W 001°39'3 3.5
2017-Mar-27 19:33N 43°27' W 001°42'6 5.8
2017-Mar-27 18:34N 43°22' W 001°47'1 0.1
2017-Mar-27 11:19N 43°23' W 001°47'1 0.7
2017-Mar-27 10:33N 43°23' W 001°47'0 0.0
2017-Mar-27 09:33N 43°23' W 001°47'1 1.2
2017-Mar-27 08:33N 43°24' W 001°49'0 0.0
2017-Mar-27 02:33N 43°24' W 001°49'5 4.6
2017-Mar-27 01:33N 43°26' W 001°43'0 0.2
2017-Mar-27 00:33N 43°26' W 001°43'1 0.7
2017-Mar-26 23:33N 43°27' W 001°43'0 0.3
2017-Mar-26 22:33N 43°27' W 001°43'4 1.2
2017-Mar-26 19:33N 43°27' W 001°38'  
2017-Mar-24 04:22N 43°23' W 001°47'4 4.5
2017-Mar-24 03:33N 43°24' W 001°52'2 0.4
2017-Mar-23 22:33N 43°22' W 001°53'5 0.2
2017-Mar-22 22:33N 43°22' W 001°47'0 0.0
2017-Mar-22 04:11N 43°22' W 001°47'3 3.8
2017-Mar-22 03:28N 43°24' W 001°49'1 0.2
2017-Mar-22 00:33N 43°24' W 001°49'4 4.5
2017-Mar-21 23:33N 43°25' W 001°43'1 1.1
2017-Mar-21 22:33N 43°26' W 001°42'0 0.3
2017-Mar-21 21:33N 43°27' W 001°42'1 1.4
2017-Mar-21 20:33N 43°25' W 001°41'5 0.3
2017-Mar-21 06:34N 43°24' W 001°47'3 0.9
2017-Mar-21 03:33N 43°23' W 001°51'6 6.3
2017-Mar-21 02:34N 43°26' W 001°43'3 2.5
2017-Mar-21 01:33N 43°28' W 001°41'2 2.2
2017-Mar-21 00:32N 43°26' W 001°43'2 2.4
2017-Mar-20 23:34N 43°24' W 001°45'3 3.0
2017-Mar-20 22:33N 43°27' W 001°42'5 5.2
2017-Mar-20 21:33N 43°29' W 001°36'5 4.9
2017-Mar-20 20:31N 43°27' W 001°42'0 0.2
2017-Mar-20 19:33N 43°27' W 001°42'8 0.6
2017-Mar-20 06:33N 43°23' W 001°52'  
Track history (hours):
 
Tides and Currents Weather Stations Pressure Air Temp Water Temp Dewpoint Dewpoint Depression Visibility Wind Speed Wind Dir Waves Ship Positions

F/V Attalaya Berria

Last reported at 2017-Mar-30 05:33 UTC. Time now 2017-Mar-30 16:45 UTC.
Position N 43°24' W 001°49'.

Length 26 m.

Type: Fishing. MMSI: 228315000.

Date/timePositionNaut miles runAvg speedWind from/ knotsBaromVisibWave heightAir tempDewpointWater temp
2017-Mar-30 05:33N 43°24' W 001°49'2 0.5
2017-Mar-30 01:24N 43°23' W 001°51'7 8.3
2017-Mar-30 00:33N 43°27' W 001°43'0 0.1
2017-Mar-29 23:33N 43°27' W 001°43'0 0.2
2017-Mar-29 22:33N 43°27' W 001°42'2 2.2
2017-Mar-29 21:28N 43°27' W 001°46'4 3.7
2017-Mar-29 20:29N 43°30' W 001°43'3 3.1
2017-Mar-29 19:34N 43°27' W 001°42'5 0.3
2017-Mar-29 05:33N 43°24' W 001°47'3 0.5
2017-Mar-29 00:33N 43°23' W 001°51'7 6.9
2017-Mar-28 23:33N 43°27' W 001°42'2 1.9
2017-Mar-28 22:33N 43°29' W 001°43'1 0.9
2017-Mar-28 21:26N 43°28' W 001°44'0 0.3
2017-Mar-28 20:33N 43°27' W 001°43'1 1.0
2017-Mar-28 19:33N 43°27' W 001°42'5 0.4
2017-Mar-28 06:34N 43°24' W 001°49'3 0.4
2017-Mar-27 23:09N 43°23' W 001°52'6 9.9
2017-Mar-27 22:33N 43°25' W 001°45'3 2.8
2017-Mar-27 21:34N 43°27' W 001°42'3 3.4
2017-Mar-27 20:34N 43°29' W 001°39'3 3.5
2017-Mar-27 19:33N 43°27' W 001°42'6 5.8
2017-Mar-27 18:34N 43°22' W 001°47'1 0.1
2017-Mar-27 11:19N 43°23' W 001°47'1 0.7
2017-Mar-27 10:33N 43°23' W 001°47'0 0.0
2017-Mar-27 09:33N 43°23' W 001°47'1 1.2
2017-Mar-27 08:33N 43°24' W 001°49'0 0.0
2017-Mar-27 02:33N 43°24' W 001°49'5 4.6
2017-Mar-27 01:33N 43°26' W 001°43'0 0.2
2017-Mar-27 00:33N 43°26' W 001°43'1 0.7
2017-Mar-26 23:33N 43°27' W 001°43'0 0.3
2017-Mar-26 22:33N 43°27' W 001°43'4 1.2
2017-Mar-26 19:33N 43°27' W 001°38'  
2017-Mar-24 04:22N 43°23' W 001°47'4 4.5
2017-Mar-24 03:33N 43°24' W 001°52'2 0.4
2017-Mar-23 22:33N 43°22' W 001°53'5 0.2
2017-Mar-22 22:33N 43°22' W 001°47'0 0.0
2017-Mar-22 04:11N 43°22' W 001°47'3 3.8
2017-Mar-22 03:28N 43°24' W 001°49'1 0.2
2017-Mar-22 00:33N 43°24' W 001°49'4 4.5
2017-Mar-21 23:33N 43°25' W 001°43'1 1.1
2017-Mar-21 22:33N 43°26' W 001°42'0 0.3
2017-Mar-21 21:33N 43°27' W 001°42'1 1.4
2017-Mar-21 20:33N 43°25' W 001°41'5 0.3
2017-Mar-21 06:34N 43°24' W 001°47'3 0.9
2017-Mar-21 03:33N 43°23' W 001°51'6 6.3
2017-Mar-21 02:34N 43°26' W 001°43'3 2.5
2017-Mar-21 01:33N 43°28' W 001°41'2 2.2
2017-Mar-21 00:32N 43°26' W 001°43'2 2.4
2017-Mar-20 23:34N 43°24' W 001°45'3 3.0
2017-Mar-20 22:33N 43°27' W 001°42'5 5.2
2017-Mar-20 21:33N 43°29' W 001°36'5 4.9
2017-Mar-20 20:31N 43°27' W 001°42'0 0.2
2017-Mar-20 19:33N 43°27' W 001°42'8 0.6
2017-Mar-20 06:33N 43°23' W 001°52'  

Dump ship's entire track history